sensor_id;sensor_type;location;lat;lon;timestamp;pressure;altitude;pressure_sealevel;temperature;humidity
19890;BME280;10107;51.198;6.824;2022-12-22T00:02:18;-21524.75;;;7.80;100.00
19890;BME280;10107;51.198;6.824;2022-12-22T00:06:37;-21526.06;;;7.85;100.00
19890;BME280;10107;51.198;6.824;2022-12-22T00:10:57;-21526.75;;;7.88;100.00
19890;BME280;10107;51.198;6.824;2022-12-22T00:15:20;-21527.69;;;7.91;100.00
19890;BME280;10107;51.198;6.824;2022-12-22T00:19:41;-21527.41;;;7.90;100.00
19890;BME280;10107;51.198;6.824;2022-12-22T00:24:02;-21527.53;;;7.91;100.00
19890;BME280;10107;51.198;6.824;2022-12-22T00:28:21;-21527.69;;;7.91;100.00
19890;BME280;10107;51.198;6.824;2022-12-22T00:32:42;-21527.94;;;7.92;100.00
19890;BME280;10107;51.198;6.824;2022-12-22T00:37:02;-21527.28;;;7.90;100.00
19890;BME280;10107;51.198;6.824;2022-12-22T00:41:22;-21527.00;;;7.89;100.00
19890;BME280;10107;51.198;6.824;2022-12-22T00:45:41;-21526.75;;;7.88;100.00
19890;BME280;10107;51.198;6.824;2022-12-22T00:50:02;-21526.22;;;7.86;100.00
19890;BME280;10107;51.198;6.824;2022-12-22T00:54:21;-21526.34;;;7.86;100.00
19890;BME280;10107;51.198;6.824;2022-12-22T00:58:40;-21526.22;;;7.86;100.00
19890;BME280;10107;51.198;6.824;2022-12-22T01:03:00;-21526.22;;;7.86;100.00
19890;BME280;10107;51.198;6.824;2022-12-22T01:07:22;-21526.22;;;7.86;100.00
19890;BME280;10107;51.198;6.824;2022-12-22T01:11:43;-21526.34;;;7.86;100.00
19890;BME280;10107;51.198;6.824;2022-12-22T01:16:02;-21526.88;;;7.88;100.00
19890;BME280;10107;51.198;6.824;2022-12-22T01:20:23;-21527.53;;;7.91;100.00
19890;BME280;10107;51.198;6.824;2022-12-22T01:24:46;-21527.16;;;7.89;100.00
19890;BME280;10107;51.198;6.824;2022-12-22T01:29:05;-21527.53;;;7.91;100.00
19890;BME280;10107;51.198;6.824;2022-12-22T01:33:25;-21528.06;;;7.93;100.00
19890;BME280;10107;51.198;6.824;2022-12-22T01:37:44;-21528.22;;;7.93;100.00
19890;BME280;10107;51.198;6.824;2022-12-22T01:42:09;-21528.75;;;7.96;100.00
19890;BME280;10107;51.198;6.824;2022-12-22T01:46:31;-21529.28;;;7.98;100.00
19890;BME280;10107;51.198;6.824;2022-12-22T01:50:52;-21529.41;;;7.98;100.00
19890;BME280;10107;51.198;6.824;2022-12-22T01:55:15;-21529.94;;;8.00;100.00
19890;BME280;10107;51.198;6.824;2022-12-22T01:59:37;-21530.88;;;8.04;100.00
19890;BME280;10107;51.198;6.824;2022-12-22T02:03:56;-21531.00;;;8.04;100.00
19890;BME280;10107;51.198;6.824;2022-12-22T02:08:22;-21531.53;;;8.06;100.00
19890;BME280;10107;51.198;6.824;2022-12-22T02:12:50;-21532.59;;;8.10;100.00
19890;BME280;10107;51.198;6.824;2022-12-22T02:17:18;-21532.84;;;8.11;100.00
19890;BME280;10107;51.198;6.824;2022-12-22T02:21:45;-21533.53;;;8.14;100.00
19890;BME280;10107;51.198;6.824;2022-12-22T02:26:32;-21533.53;;;8.14;100.00
19890;BME280;10107;51.198;6.824;2022-12-22T02:30:53;-21534.06;;;8.16;100.00
19890;BME280;10107;51.198;6.824;2022-12-22T02:35:14;-21534.72;;;8.19;100.00
19890;BME280;10107;51.198;6.824;2022-12-22T02:39:41;-21535.25;;;8.21;100.00
19890;BME280;10107;51.198;6.824;2022-12-22T02:44:15;-21535.78;;;8.23;100.00
19890;BME280;10107;51.198;6.824;2022-12-22T02:48:40;-21535.66;;;8.22;100.00
19890;BME280;10107;51.198;6.824;2022-12-22T02:53:05;-21536.06;;;8.24;100.00
19890;BME280;10107;51.198;6.824;2022-12-22T02:57:27;-21536.19;;;8.24;100.00
19890;BME280;10107;51.198;6.824;2022-12-22T03:01:51;-21536.19;;;8.24;100.00
19890;BME280;10107;51.198;6.824;2022-12-22T03:06:11;-21536.31;;;8.25;100.00
19890;BME280;10107;51.198;6.824;2022-12-22T03:10:30;-21536.59;;;8.26;100.00
19890;BME280;10107;51.198;6.824;2022-12-22T03:14:50;-21536.59;;;8.26;100.00
19890;BME280;10107;51.198;6.824;2022-12-22T03:19:11;-21536.59;;;8.26;100.00
19890;BME280;10107;51.198;6.824;2022-12-22T03:23:31;-21536.84;;;8.27;100.00
19890;BME280;10107;51.198;6.824;2022-12-22T03:27:53;-21537.13;;;8.28;100.00
19890;BME280;10107;51.198;6.824;2022-12-22T03:31:55;-21537.91;;;8.31;100.00
19890;BME280;10107;51.198;6.824;2022-12-22T03:36:03;-21538.31;;;8.32;100.00
19890;BME280;10107;51.198;6.824;2022-12-22T03:40:07;-21538.72;;;8.34;100.00
19890;BME280;10107;51.198;6.824;2022-12-22T03:44:09;-21538.72;;;8.34;100.00
19890;BME280;10107;51.198;6.824;2022-12-22T03:48:29;-21539.50;;;8.37;100.00
19890;BME280;10107;51.198;6.824;2022-12-22T03:52:32;-21540.03;;;8.39;100.00
19890;BME280;10107;51.198;6.824;2022-12-22T03:56:35;-21539.91;;;8.39;100.00
19890;BME280;10107;51.198;6.824;2022-12-22T04:00:37;-21540.44;;;8.41;100.00
19890;BME280;10107;51.198;6.824;2022-12-22T04:04:41;-21541.09;;;8.43;100.00
19890;BME280;10107;51.198;6.824;2022-12-22T04:08:44;-21542.56;;;8.49;100.00
19890;BME280;10107;51.198;6.824;2022-12-22T04:12:46;-21542.56;;;8.49;100.00
19890;BME280;10107;51.198;6.824;2022-12-22T04:16:56;-21542.97;;;8.50;100.00
19890;BME280;10107;51.198;6.824;2022-12-22T04:20:59;-21543.50;;;8.52;100.00
19890;BME280;10107;51.198;6.824;2022-12-22T04:25:05;-21542.69;;;8.49;100.00
19890;BME280;10107;51.198;6.824;2022-12-22T04:29:07;-21543.22;;;8.51;100.00
19890;BME280;10107;51.198;6.824;2022-12-22T04:33:09;-21542.44;;;8.48;100.00
19890;BME280;10107;51.198;6.824;2022-12-22T04:37:11;-21542.69;;;8.49;100.00
19890;BME280;10107;51.198;6.824;2022-12-22T04:41:15;-21543.09;;;8.51;100.00
19890;BME280;10107;51.198;6.824;2022-12-22T04:45:17;-21543.50;;;8.52;100.00
19890;BME280;10107;51.198;6.824;2022-12-22T04:49:19;-21542.84;;;8.50;100.00
19890;BME280;10107;51.198;6.824;2022-12-22T04:53:21;-21542.97;;;8.50;100.00
19890;BME280;10107;51.198;6.824;2022-12-22T04:57:24;-21542.56;;;8.49;100.00
19890;BME280;10107;51.198;6.824;2022-12-22T05:01:26;-21542.56;;;8.49;100.00
19890;BME280;10107;51.198;6.824;2022-12-22T05:05:28;-21543.38;;;8.52;100.00
19890;BME280;10107;51.198;6.824;2022-12-22T05:09:29;-21544.16;;;8.55;100.00
19890;BME280;10107;51.198;6.824;2022-12-22T05:13:32;-21544.03;;;8.55;100.00
19890;BME280;10107;51.198;6.824;2022-12-22T05:17:34;-21544.28;;;8.56;100.00
19890;BME280;10107;51.198;6.824;2022-12-22T05:21:36;-21543.50;;;8.52;100.00
19890;BME280;10107;51.198;6.824;2022-12-22T05:25:37;-21542.84;;;8.50;100.00
19890;BME280;10107;51.198;6.824;2022-12-22T05:29:40;-21542.69;;;8.49;100.00
19890;BME280;10107;51.198;6.824;2022-12-22T05:33:42;-21543.22;;;8.51;100.00
19890;BME280;10107;51.198;6.824;2022-12-22T05:37:45;-21545.09;;;8.59;100.00
19890;BME280;10107;51.198;6.824;2022-12-22T05:41:47;-21545.63;;;8.61;100.00
19890;BME280;10107;51.198;6.824;2022-12-22T05:45:50;-21545.63;;;8.61;100.00
19890;BME280;10107;51.198;6.824;2022-12-22T05:49:53;-21545.22;;;8.59;100.00
19890;BME280;10107;51.198;6.824;2022-12-22T05:53:54;-21545.22;;;8.59;100.00
19890;BME280;10107;51.198;6.824;2022-12-22T05:57:56;-21545.22;;;8.59;100.00
19890;BME280;10107;51.198;6.824;2022-12-22T06:02:02;-21544.97;;;8.58;100.00
19890;BME280;10107;51.198;6.824;2022-12-22T06:06:04;-21545.09;;;8.59;100.00
19890;BME280;10107;51.198;6.824;2022-12-22T06:10:08;-21545.38;;;8.60;100.00
19890;BME280;10107;51.198;6.824;2022-12-22T06:14:09;-21545.38;;;8.60;100.00
19890;BME280;10107;51.198;6.824;2022-12-22T06:18:12;-21545.09;;;8.59;100.00
19890;BME280;10107;51.198;6.824;2022-12-22T06:22:14;-21544.16;;;8.55;100.00
19890;BME280;10107;51.198;6.824;2022-12-22T06:26:16;-21544.16;;;8.55;100.00
19890;BME280;10107;51.198;6.824;2022-12-22T06:30:17;-21543.63;;;8.53;100.00
19890;BME280;10107;51.198;6.824;2022-12-22T06:34:20;-21542.84;;;8.50;100.00
19890;BME280;10107;51.198;6.824;2022-12-22T06:38:22;-21542.97;;;8.50;100.00
19890;BME280;10107;51.198;6.824;2022-12-22T06:42:23;-21542.16;;;8.47;100.00
19890;BME280;10107;51.198;6.824;2022-12-22T06:46:42;-21541.63;;;8.45;100.00
19890;BME280;10107;51.198;6.824;2022-12-22T06:50:45;-21542.31;;;8.48;100.00
19890;BME280;10107;51.198;6.824;2022-12-22T06:54:47;-21542.03;;;8.47;100.00
19890;BME280;10107;51.198;6.824;2022-12-22T06:58:48;-21541.09;;;8.43;100.00
19890;BME280;10107;51.198;6.824;2022-12-22T07:02:50;-21540.16;;;8.40;100.00
19890;BME280;10107;51.198;6.824;2022-12-22T07:06:53;-21540.03;;;8.39;100.00
19890;BME280;10107;51.198;6.824;2022-12-22T07:10:54;-21539.91;;;8.39;100.00
19890;BME280;10107;51.198;6.824;2022-12-22T07:14:59;-21540.31;;;8.40;100.00
19890;BME280;10107;51.198;6.824;2022-12-22T07:19:01;-21539.78;;;8.38;100.00
19890;BME280;10107;51.198;6.824;2022-12-22T07:23:04;-21540.31;;;8.40;100.00
19890;BME280;10107;51.198;6.824;2022-12-22T07:27:05;-21539.63;;;8.38;100.00
19890;BME280;10107;51.198;6.824;2022-12-22T07:31:08;-21538.97;;;8.35;100.00
19890;BME280;10107;51.198;6.824;2022-12-22T07:35:10;-21539.09;;;8.36;100.00
19890;BME280;10107;51.198;6.824;2022-12-22T07:39:13;-21539.09;;;8.36;100.00
19890;BME280;10107;51.198;6.824;2022-12-22T07:43:15;-21539.78;;;8.38;100.00
19890;BME280;10107;51.198;6.824;2022-12-22T07:47:16;-21540.84;;;8.42;100.00
19890;BME280;10107;51.198;6.824;2022-12-22T07:51:18;-21542.03;;;8.47;100.00
19890;BME280;10107;51.198;6.824;2022-12-22T07:55:22;-21543.63;;;8.53;100.00
19890;BME280;10107;51.198;6.824;2022-12-22T07:59:23;-21544.97;;;8.58;100.00
19890;BME280;10107;51.198;6.824;2022-12-22T08:03:25;-21544.97;;;8.58;100.00
19890;BME280;10107;51.198;6.824;2022-12-22T08:07:27;-21546.16;;;8.63;100.00
19890;BME280;10107;51.198;6.824;2022-12-22T08:11:30;-21546.41;;;8.64;100.00
19890;BME280;10107;51.198;6.824;2022-12-22T08:15:32;-21546.81;;;8.65;100.00
19890;BME280;10107;51.198;6.824;2022-12-22T08:19:34;-21547.50;;;8.68;100.00
19890;BME280;10107;51.198;6.824;2022-12-22T08:23:40;-21547.88;;;8.69;100.00
19890;BME280;10107;51.198;6.824;2022-12-22T08:27:52;-21548.81;;;8.73;100.00
19890;BME280;10107;51.198;6.824;2022-12-22T08:31:56;-21548.16;;;8.70;100.00
19890;BME280;10107;51.198;6.824;2022-12-22T08:36:01;-21547.88;;;8.69;100.00
19890;BME280;10107;51.198;6.824;2022-12-22T08:40:06;-21547.09;;;8.66;100.00
19890;BME280;10107;51.198;6.824;2022-12-22T08:44:10;-21547.34;;;8.67;100.00
19890;BME280;10107;51.198;6.824;2022-12-22T08:48:11;-21547.50;;;8.68;100.00
19890;BME280;10107;51.198;6.824;2022-12-22T08:52:14;-21547.63;;;8.68;100.00
19890;BME280;10107;51.198;6.824;2022-12-22T08:56:15;-21548.28;;;8.71;100.00
19890;BME280;10107;51.198;6.824;2022-12-22T09:00:19;-21548.53;;;8.72;100.00
19890;BME280;10107;51.198;6.824;2022-12-22T09:04:22;-21548.94;;;8.74;100.00
19890;BME280;10107;51.198;6.824;2022-12-22T09:08:24;-21550.13;;;8.78;100.00
19890;BME280;10107;51.198;6.824;2022-12-22T09:12:26;-21551.47;;;8.83;100.00
19890;BME280;10107;51.198;6.824;2022-12-22T09:16:30;-21552.66;;;8.88;100.00
19890;BME280;10107;51.198;6.824;2022-12-22T09:20:32;-21553.72;;;8.92;100.00
19890;BME280;10107;51.198;6.824;2022-12-22T09:24:34;-21553.47;;;8.91;100.00
19890;BME280;10107;51.198;6.824;2022-12-22T09:28:36;-21553.31;;;8.90;100.00
19890;BME280;10107;51.198;6.824;2022-12-22T09:32:40;-21552.66;;;8.88;100.00
19890;BME280;10107;51.198;6.824;2022-12-22T09:36:41;-21552.25;;;8.86;100.00
19890;BME280;10107;51.198;6.824;2022-12-22T09:40:43;-21554.53;;;8.95;100.00
19890;BME280;10107;51.198;6.824;2022-12-22T09:44:47;-21558.63;;;9.11;100.00
19890;BME280;10107;51.198;6.824;2022-12-22T09:48:52;-21563.94;;;9.31;100.00
19890;BME280;10107;51.198;6.824;2022-12-22T09:52:57;-21561.81;;;9.23;100.00
19890;BME280;10107;51.198;6.824;2022-12-22T09:57:00;-21560.75;;;9.19;100.00
19890;BME280;10107;51.198;6.824;2022-12-22T10:01:26;-21558.78;;;9.11;100.00
19890;BME280;10107;51.198;6.824;2022-12-22T10:05:36;-21554.91;;;8.97;100.00
19890;BME280;10107;51.198;6.824;2022-12-22T10:09:40;-21553.19;;;8.90;100.00
19890;BME280;10107;51.198;6.824;2022-12-22T10:13:42;-21552.41;;;8.87;100.00
19890;BME280;10107;51.198;6.824;2022-12-22T10:17:45;-21554.13;;;8.94;100.00
19890;BME280;10107;51.198;6.824;2022-12-22T10:21:48;-21558.91;;;9.12;100.00
19890;BME280;10107;51.198;6.824;2022-12-22T10:26:01;-21561.69;;;9.23;100.00
19890;BME280;10107;51.198;6.824;2022-12-22T10:30:19;-21562.50;;;9.26;100.00
19890;BME280;10107;51.198;6.824;2022-12-22T10:34:22;-21560.09;;;9.17;100.00
19890;BME280;10107;51.198;6.824;2022-12-22T10:38:27;-21557.44;;;9.06;100.00
19890;BME280;10107;51.198;6.824;2022-12-22T10:42:31;-21556.50;;;9.03;100.00
19890;BME280;10107;51.198;6.824;2022-12-22T10:46:36;-21557.44;;;9.06;100.00
19890;BME280;10107;51.198;6.824;2022-12-22T10:50:44;-21560.75;;;9.19;100.00
19890;BME280;10107;51.198;6.824;2022-12-22T10:54:49;-21565.53;;;9.38;100.00
19890;BME280;10107;51.198;6.824;2022-12-22T10:58:53;-21582.66;;;10.04;100.00
19890;BME280;10107;51.198;6.824;2022-12-22T11:02:59;-21601.19;;;10.76;100.00
19890;BME280;10107;51.198;6.824;2022-12-22T11:07:06;-21627.94;;;11.79;100.00
19890;BME280;10107;51.198;6.824;2022-12-22T11:11:15;-21627.41;;;11.77;100.00
19890;BME280;10107;51.198;6.824;2022-12-22T11:15:24;-21654.47;;;12.82;100.00
19890;BME280;10107;51.198;6.824;2022-12-22T11:19:43;-21688.25;;;14.14;100.00
19890;BME280;10107;51.198;6.824;2022-12-22T11:23:55;-21677.69;;;13.73;100.00
19890;BME280;10107;51.198;6.824;2022-12-22T11:33:14;-21650.78;;;12.68;100.00
19890;BME280;10107;51.198;6.824;2022-12-22T11:37:28;-21684.16;;;13.98;100.00
19890;BME280;10107;51.198;6.824;2022-12-22T11:41:46;-21673.34;;;13.56;100.00
19890;BME280;10107;51.198;6.824;2022-12-22T11:46:08;-21653.69;;;12.79;100.00
19890;BME280;10107;51.198;6.824;2022-12-22T11:50:27;-21632.16;;;11.96;100.00
19890;BME280;10107;51.198;6.824;2022-12-22T11:54:45;-21617.34;;;11.38;100.00
19890;BME280;10107;51.198;6.824;2022-12-22T12:03:54;-21608.22;;;11.03;100.00
19890;BME280;10107;51.198;6.824;2022-12-22T12:08:09;-21616.56;;;11.35;100.00
19890;BME280;10107;51.198;6.824;2022-12-22T12:12:22;-21615.22;;;11.30;100.00
19890;BME280;10107;51.198;6.824;2022-12-22T12:16:34;-21614.44;;;11.27;100.00
19890;BME280;10107;51.198;6.824;2022-12-22T12:20:45;-21610.22;;;11.10;100.00
19890;BME280;10107;51.198;6.824;2022-12-22T12:24:58;-21609.69;;;11.08;100.00
19890;BME280;10107;51.198;6.824;2022-12-22T12:29:12;-21608.88;;;11.05;100.00
19890;BME280;10107;51.198;6.824;2022-12-22T12:33:16;-21613.25;;;11.22;100.00
19890;BME280;10107;51.198;6.824;2022-12-22T12:37:20;-21611.78;;;11.17;100.00
19890;BME280;10107;51.198;6.824;2022-12-22T12:41:29;-21606.63;;;10.97;100.00
19890;BME280;10107;51.198;6.824;2022-12-22T12:45:36;-21599.34;;;10.68;100.00
19890;BME280;10107;51.198;6.824;2022-12-22T12:54:22;-21594.72;;;10.50;100.00
19890;BME280;10107;51.198;6.824;2022-12-22T12:59:02;-21596.84;;;10.59;100.00
19890;BME280;10107;51.198;6.824;2022-12-22T13:03:08;-21601.34;;;10.76;100.00
19890;BME280;10107;51.198;6.824;2022-12-22T13:07:10;-21605.03;;;10.90;100.00
19890;BME280;10107;51.198;6.824;2022-12-22T13:11:31;-21605.03;;;10.90;100.00
19890;BME280;10107;51.198;6.824;2022-12-22T13:15:36;-21600.41;;;10.73;100.00
19890;BME280;10107;51.198;6.824;2022-12-22T13:19:38;-21592.72;;;10.43;100.00
19890;BME280;10107;51.198;6.824;2022-12-22T13:23:41;-21585.69;;;10.16;100.00
19890;BME280;10107;51.198;6.824;2022-12-22T13:27:45;-21580.41;;;9.95;100.00
19890;BME280;10107;51.198;6.824;2022-12-22T13:31:51;-21581.06;;;9.98;100.00
19890;BME280;10107;51.198;6.824;2022-12-22T13:35:56;-21578.00;;;9.86;100.00
19890;BME280;10107;51.198;6.824;2022-12-22T13:40:07;-21578.53;;;9.88;100.00
19890;BME280;10107;51.198;6.824;2022-12-22T13:44:12;-21576.81;;;9.81;100.00
19890;BME280;10107;51.198;6.824;2022-12-22T13:48:18;-21571.38;;;9.60;100.00
19890;BME280;10107;51.198;6.824;2022-12-22T13:52:21;-21571.66;;;9.61;100.00
19890;BME280;10107;51.198;6.824;2022-12-22T13:56:25;-21572.56;;;9.65;100.00
19890;BME280;10107;51.198;6.824;2022-12-22T14:00:28;-21572.19;;;9.63;100.00
19890;BME280;10107;51.198;6.824;2022-12-22T14:04:31;-21571.25;;;9.60;100.00
19890;BME280;10107;51.198;6.824;2022-12-22T14:08:33;-21572.19;;;9.63;100.00
19890;BME280;10107;51.198;6.824;2022-12-22T14:12:38;-21569.38;;;9.52;100.00
19890;BME280;10107;51.198;6.824;2022-12-22T14:16:43;-21568.59;;;9.49;100.00
19890;BME280;10107;51.198;6.824;2022-12-22T14:20:47;-21566.72;;;9.42;100.00
19890;BME280;10107;51.198;6.824;2022-12-22T14:24:51;-21564.22;;;9.32;100.00
19890;BME280;10107;51.198;6.824;2022-12-22T14:28:55;-21562.09;;;9.24;100.00
19890;BME280;10107;51.198;6.824;2022-12-22T14:33:14;-21559.84;;;9.16;100.00
19890;BME280;10107;51.198;6.824;2022-12-22T14:37:22;-21557.44;;;9.06;100.00
19890;BME280;10107;51.198;6.824;2022-12-22T14:41:26;-21553.47;;;8.91;100.00
19890;BME280;10107;51.198;6.824;2022-12-22T14:45:47;-21548.41;;;8.71;100.00
19890;BME280;10107;51.198;6.824;2022-12-22T14:49:49;-21545.38;;;8.60;100.00
19890;BME280;10107;51.198;6.824;2022-12-22T14:53:55;-21543.75;;;8.53;100.00
19890;BME280;10107;51.198;6.824;2022-12-22T14:58:01;-21544.44;;;8.56;100.00
19890;BME280;10107;51.198;6.824;2022-12-22T15:02:21;-21544.81;;;8.58;100.00
19890;BME280;10107;51.198;6.824;2022-12-22T15:06:37;-21544.28;;;8.56;100.00
19890;BME280;10107;51.198;6.824;2022-12-22T15:10:42;-21544.03;;;8.55;100.00
19890;BME280;10107;51.198;6.824;2022-12-22T15:14:44;-21544.03;;;8.55;100.00
19890;BME280;10107;51.198;6.824;2022-12-22T15:18:48;-21542.97;;;8.50;100.00
19890;BME280;10107;51.198;6.824;2022-12-22T15:22:50;-21543.22;;;8.51;100.00
19890;BME280;10107;51.198;6.824;2022-12-22T15:26:54;-21543.22;;;8.51;100.00
19890;BME280;10107;51.198;6.824;2022-12-22T15:30:56;-21542.69;;;8.49;100.00
19890;BME280;10107;51.198;6.824;2022-12-22T15:34:59;-21542.44;;;8.48;100.00
19890;BME280;10107;51.198;6.824;2022-12-22T15:39:02;-21542.69;;;8.49;100.00
19890;BME280;10107;51.198;6.824;2022-12-22T15:43:05;-21542.03;;;8.47;100.00
19890;BME280;10107;51.198;6.824;2022-12-22T15:47:09;-21542.31;;;8.48;100.00
19890;BME280;10107;51.198;6.824;2022-12-22T15:51:15;-21542.16;;;8.47;100.00
19890;BME280;10107;51.198;6.824;2022-12-22T15:55:21;-21541.63;;;8.45;100.00
19890;BME280;10107;51.198;6.824;2022-12-22T15:59:26;-21539.63;;;8.38;100.00
19890;BME280;10107;51.198;6.824;2022-12-22T16:03:28;-21537.66;;;8.30;100.00
19890;BME280;10107;51.198;6.824;2022-12-22T16:07:30;-21536.31;;;8.25;100.00
19890;BME280;10107;51.198;6.824;2022-12-22T16:11:32;-21535.38;;;8.21;100.00
19890;BME280;10107;51.198;6.824;2022-12-22T16:15:35;-21534.19;;;8.17;100.00
19890;BME280;10107;51.198;6.824;2022-12-22T16:19:36;-21533.38;;;8.13;100.00
19890;BME280;10107;51.198;6.824;2022-12-22T16:23:39;-21532.59;;;8.10;100.00
19890;BME280;10107;51.198;6.824;2022-12-22T16:27:42;-21531.53;;;8.06;100.00
19890;BME280;10107;51.198;6.824;2022-12-22T16:31:48;-21530.59;;;8.03;100.00
19890;BME280;10107;51.198;6.824;2022-12-22T16:35:50;-21530.34;;;8.02;100.00
19890;BME280;10107;51.198;6.824;2022-12-22T16:39:52;-21529.81;;;8.00;100.00
19890;BME280;10107;51.198;6.824;2022-12-22T16:43:54;-21529.28;;;7.98;100.00
19890;BME280;10107;51.198;6.824;2022-12-22T16:48:00;-21529.41;;;7.98;100.00
19890;BME280;10107;51.198;6.824;2022-12-22T16:52:04;-21529.53;;;7.99;100.00
19890;BME280;10107;51.198;6.824;2022-12-22T16:56:11;-21530.34;;;8.02;100.00
19890;BME280;10107;51.198;6.824;2022-12-22T17:00:14;-21530.88;;;8.04;100.00
19890;BME280;10107;51.198;6.824;2022-12-22T17:04:20;-21530.72;;;8.03;100.00
19890;BME280;10107;51.198;6.824;2022-12-22T17:08:25;-21530.19;;;8.01;100.00
19890;BME280;10107;51.198;6.824;2022-12-22T17:12:29;-21530.19;;;8.01;100.00
19890;BME280;10107;51.198;6.824;2022-12-22T17:16:33;-21530.34;;;8.02;100.00
19890;BME280;10107;51.198;6.824;2022-12-22T17:20:36;-21530.72;;;8.03;100.00
19890;BME280;10107;51.198;6.824;2022-12-22T17:24:38;-21530.88;;;8.04;100.00
19890;BME280;10107;51.198;6.824;2022-12-22T17:28:40;-21530.59;;;8.03;100.00
19890;BME280;10107;51.198;6.824;2022-12-22T17:32:42;-21530.19;;;8.01;100.00
19890;BME280;10107;51.198;6.824;2022-12-22T17:36:46;-21530.34;;;8.02;100.00
19890;BME280;10107;51.198;6.824;2022-12-22T17:40:49;-21529.94;;;8.00;100.00
19890;BME280;10107;51.198;6.824;2022-12-22T17:44:51;-21530.34;;;8.02;100.00
19890;BME280;10107;51.198;6.824;2022-12-22T17:48:53;-21529.81;;;8.00;100.00
19890;BME280;10107;51.198;6.824;2022-12-22T17:52:56;-21529.66;;;7.99;100.00
19890;BME280;10107;51.198;6.824;2022-12-22T17:57:00;-21530.59;;;8.03;100.00
19890;BME280;10107;51.198;6.824;2022-12-22T18:01:02;-21530.88;;;8.04;100.00
19890;BME280;10107;51.198;6.824;2022-12-22T18:05:04;-21531.00;;;8.04;100.00
19890;BME280;10107;51.198;6.824;2022-12-22T18:09:14;-21530.59;;;8.03;100.00
19890;BME280;10107;51.198;6.824;2022-12-22T18:13:20;-21531.41;;;8.06;100.00
19890;BME280;10107;51.198;6.824;2022-12-22T18:17:27;-21531.94;;;8.08;100.00
19890;BME280;10107;51.198;6.824;2022-12-22T18:21:28;-21531.53;;;8.06;100.00
19890;BME280;10107;51.198;6.824;2022-12-22T18:25:31;-21532.84;;;8.11;100.00
19890;BME280;10107;51.198;6.824;2022-12-22T18:29:33;-21533.13;;;8.12;100.00
19890;BME280;10107;51.198;6.824;2022-12-22T18:33:35;-21533.66;;;8.15;100.00
19890;BME280;10107;51.198;6.824;2022-12-22T18:37:37;-21534.19;;;8.17;100.00
19890;BME280;10107;51.198;6.824;2022-12-22T18:41:41;-21534.47;;;8.18;100.00
19890;BME280;10107;51.198;6.824;2022-12-22T18:45:42;-21535.13;;;8.20;100.00
19890;BME280;10107;51.198;6.824;2022-12-22T18:49:44;-21535.78;;;8.23;100.00
19890;BME280;10107;51.198;6.824;2022-12-22T18:53:46;-21535.91;;;8.23;100.00
19890;BME280;10107;51.198;6.824;2022-12-22T18:57:51;-21536.31;;;8.25;100.00
19890;BME280;10107;51.198;6.824;2022-12-22T19:01:56;-21536.84;;;8.27;100.00
19890;BME280;10107;51.198;6.824;2022-12-22T19:06:00;-21536.84;;;8.27;100.00
19890;BME280;10107;51.198;6.824;2022-12-22T19:10:03;-21536.44;;;8.25;100.00
19890;BME280;10107;51.198;6.824;2022-12-22T19:14:14;-21537.25;;;8.28;100.00
19890;BME280;10107;51.198;6.824;2022-12-22T19:18:19;-21537.38;;;8.29;100.00
19890;BME280;10107;51.198;6.824;2022-12-22T19:22:23;-21537.91;;;8.31;100.00
19890;BME280;10107;51.198;6.824;2022-12-22T19:26:25;-21538.97;;;8.35;100.00
19890;BME280;10107;51.198;6.824;2022-12-22T19:30:29;-21539.25;;;8.36;100.00
19890;BME280;10107;51.198;6.824;2022-12-22T19:34:31;-21539.38;;;8.37;100.00
19890;BME280;10107;51.198;6.824;2022-12-22T19:38:33;-21539.50;;;8.37;100.00
19890;BME280;10107;51.198;6.824;2022-12-22T19:42:35;-21540.03;;;8.39;100.00
19890;BME280;10107;51.198;6.824;2022-12-22T19:46:38;-21539.63;;;8.38;100.00
19890;BME280;10107;51.198;6.824;2022-12-22T19:50:40;-21540.44;;;8.41;100.00
19890;BME280;10107;51.198;6.824;2022-12-22T19:54:42;-21540.72;;;8.42;100.00
19890;BME280;10107;51.198;6.824;2022-12-22T19:58:45;-21541.09;;;8.43;100.00
19890;BME280;10107;51.198;6.824;2022-12-22T20:02:50;-21542.03;;;8.47;100.00
19890;BME280;10107;51.198;6.824;2022-12-22T20:06:54;-21542.03;;;8.47;100.00
19890;BME280;10107;51.198;6.824;2022-12-22T20:10:55;-21542.31;;;8.48;100.00
19890;BME280;10107;51.198;6.824;2022-12-22T20:15:01;-21542.97;;;8.50;100.00
19890;BME280;10107;51.198;6.824;2022-12-22T20:19:12;-21543.50;;;8.52;100.00
19890;BME280;10107;51.198;6.824;2022-12-22T20:23:19;-21544.03;;;8.55;100.00
19890;BME280;10107;51.198;6.824;2022-12-22T20:27:26;-21543.63;;;8.53;100.00
19890;BME280;10107;51.198;6.824;2022-12-22T20:31:32;-21544.03;;;8.55;100.00
19890;BME280;10107;51.198;6.824;2022-12-22T20:35:36;-21544.44;;;8.56;100.00
19890;BME280;10107;51.198;6.824;2022-12-22T20:39:38;-21544.97;;;8.58;100.00
19890;BME280;10107;51.198;6.824;2022-12-22T20:43:39;-21544.69;;;8.57;100.00
19890;BME280;10107;51.198;6.824;2022-12-22T20:47:43;-21544.69;;;8.57;100.00
19890;BME280;10107;51.198;6.824;2022-12-22T20:51:47;-21544.97;;;8.58;100.00
19890;BME280;10107;51.198;6.824;2022-12-22T20:55:48;-21545.22;;;8.59;100.00
19890;BME280;10107;51.198;6.824;2022-12-22T20:59:50;-21544.69;;;8.57;100.00
19890;BME280;10107;51.198;6.824;2022-12-22T21:03:52;-21545.38;;;8.60;100.00
19890;BME280;10107;51.198;6.824;2022-12-22T21:08:15;-21545.09;;;8.59;100.00
19890;BME280;10107;51.198;6.824;2022-12-22T21:12:28;-21545.09;;;8.59;100.00
19890;BME280;10107;51.198;6.824;2022-12-22T21:16:31;-21544.97;;;8.58;100.00
19890;BME280;10107;51.198;6.824;2022-12-22T21:20:35;-21545.38;;;8.60;100.00
19890;BME280;10107;51.198;6.824;2022-12-22T21:24:38;-21545.63;;;8.61;100.00
19890;BME280;10107;51.198;6.824;2022-12-22T21:28:40;-21546.56;;;8.64;100.00
19890;BME280;10107;51.198;6.824;2022-12-22T21:32:43;-21546.94;;;8.66;100.00
19890;BME280;10107;51.198;6.824;2022-12-22T21:36:47;-21547.34;;;8.67;100.00
19890;BME280;10107;51.198;6.824;2022-12-22T21:40:51;-21547.34;;;8.67;100.00
19890;BME280;10107;51.198;6.824;2022-12-22T21:44:53;-21547.88;;;8.69;100.00